Time;durP1;ratioP1;P1;durP2;ratioP2;P2;SDS_P1;SDS_P2;PMS_P1;PMS_P2;Temp;Humidity;BMP_temperature;BMP_pressure;BME280_temperature;BME280_humidity;BME280_pressure;Samples;Min_cycle;Max_cycle;Signal;HPM_P1;HPM_P2
2024/02/12 00:00:18;;;;;;;0.60;0.60;;;;;;;5.29;99.06;95223.50;29395;223;63004;-55
2024/02/12 00:00:50;;;;;;;0.60;0.60;;;;;;;5.30;99.04;95221.59;29416;370;64014;-56
2024/02/12 00:01:22;;;;;;;0.50;0.50;;;;;;;5.33;99.37;95227.19;29395;221;63005;-56
2024/02/12 00:01:56;;;;;;;0.50;0.50;;;;;;;5.38;98.57;95224.38;29395;198;63009;-57
2024/02/12 00:02:28;;;;;;;0.60;0.60;;;;;;;5.39;98.48;95223.28;29395;215;63005;-56
2024/02/12 00:03:02;;;;;;;0.60;0.60;;;;;;;5.41;98.37;95222.19;29395;208;63009;-65
2024/02/12 00:03:35;;;;;;;0.60;0.60;;;;;;;5.41;98.67;95223.00;29395;219;63005;-58
2024/02/12 00:04:07;;;;;;;0.60;0.60;;;;;;;5.41;98.29;95227.56;29395;215;63009;-57
2024/02/12 00:04:39;;;;;;;0.60;0.60;;;;;;;5.40;98.58;95221.41;29395;203;63004;-57
2024/02/12 00:05:11;;;;;;;0.60;0.60;;;;;;;5.38;98.53;95224.38;29395;197;63009;-57
2024/02/12 00:05:46;;;;;;;0.60;0.60;;;;;;;5.37;98.77;95228.19;29395;309;63004;-57
2024/02/12 00:06:18;;;;;;;0.60;0.60;;;;;;;5.35;99.16;95224.97;29394;245;64013;-57
2024/02/12 00:06:49;;;;;;;0.60;0.60;;;;;;;5.34;98.97;95226.09;29395;227;63010;-56
2024/02/12 00:07:21;;;;;;;0.60;0.60;;;;;;;5.36;99.19;95223.88;29395;227;63008;-56
2024/02/12 00:07:56;;;;;;;0.60;0.60;;;;;;;5.36;99.55;95229.28;29395;232;63005;-57
2024/02/12 00:08:27;;;;;;;0.60;0.60;;;;;;;5.36;99.48;95231.16;29395;243;63009;-68
2024/02/12 00:08:58;;;;;;;0.50;0.50;;;;;;;5.34;99.60;95231.47;29395;261;63005;-57
2024/02/12 00:09:30;;;;;;;0.60;0.60;;;;;;;5.34;99.95;95228.78;29395;231;63005;-66
2024/02/12 00:10:05;;;;;;;0.52;0.52;;;;;;;5.33;99.82;95227.19;29394;207;64009;-66
2024/02/12 00:10:39;;;;;;;0.50;0.50;;;;;;;5.32;99.86;95230.97;29395;236;63009;-57
2024/02/12 00:11:11;;;;;;;0.60;0.60;;;;;;;5.33;99.80;95232.56;29395;225;63005;-57
2024/02/12 00:11:45;;;;;;;0.60;0.60;;;;;;;5.34;99.62;95227.97;29395;240;63009;-68
2024/02/12 00:12:17;;;;;;;0.50;0.50;;;;;;;5.35;99.71;95230.37;29395;218;63004;-68
2024/02/12 00:12:51;;;;;;;0.60;0.60;;;;;;;5.36;99.38;95231.97;29395;243;63009;-57
2024/02/12 00:13:23;;;;;;;0.52;0.52;;;;;;;5.37;99.66;95233.56;29395;227;63004;-57
2024/02/12 00:13:56;;;;;;;0.60;0.60;;;;;;;5.38;99.50;95228.97;29395;213;63009;-57
2024/02/12 00:14:32;;;;;;;0.60;0.60;;;;;;;5.36;99.57;95225.78;29395;230;63004;-57
2024/02/12 00:15:07;;;;;;;0.50;0.50;;;;;;;5.37;99.21;95238.13;29394;218;64013;-56
2024/02/12 00:15:39;;;;;;;0.60;0.60;;;;;;;5.35;99.28;95227.69;29395;285;63005;-55
2024/02/12 00:16:12;;;;;;;0.50;0.50;;;;;;;5.34;99.10;95223.38;29395;226;63009;-67
2024/02/12 00:16:45;;;;;;;0.60;0.60;;;;;;;5.36;99.26;95226.56;29395;206;63005;-56
2024/02/12 00:17:17;;;;;;;0.60;0.60;;;;;;;5.34;99.42;95223.38;29395;216;63009;-57
2024/02/12 00:17:49;;;;;;;0.50;0.50;;;;;;;5.35;99.57;95230.37;29395;215;63005;-56
2024/02/12 00:18:23;;;;;;;0.60;0.60;;;;;;;5.34;99.11;95230.66;29395;267;63009;-57
2024/02/12 00:18:54;;;;;;;0.55;0.55;;;;;;;5.32;99.76;95230.97;29395;223;63005;-69
2024/02/12 00:19:29;;;;;;;0.60;0.60;;;;;;;5.31;100.00;95229.37;29395;206;63009;-56
2024/02/12 00:20:00;;;;;;;0.60;0.60;;;;;;;5.31;99.98;95229.37;29395;327;63004;-57
2024/02/12 00:20:33;;;;;;;0.60;0.60;;;;;;;5.31;99.85;95231.25;29394;239;64013;-67
2024/02/12 00:21:05;;;;;;;0.60;0.60;;;;;;;5.31;100.00;95229.37;29395;247;63004;-68
2024/02/12 00:21:39;;;;;;;0.60;0.60;;;;;;;5.31;99.88;95229.37;29395;206;63009;-57
2024/02/12 00:22:11;;;;;;;0.50;0.50;;;;;;;5.31;100.00;95228.56;29395;224;63012;-56
2024/02/12 00:22:43;;;;;;;0.60;0.60;;;;;;;5.31;99.96;95237.44;29395;325;63008;-69
2024/02/12 00:23:15;;;;;;;0.50;0.50;;;;;;;5.31;100.00;95234.75;29395;281;63005;-57
2024/02/12 00:23:46;;;;;;;0.60;0.60;;;;;;;5.31;100.00;95228.56;29395;198;63009;-57
2024/02/12 00:24:18;;;;;;;0.60;0.60;;;;;;;5.30;100.00;95238.53;29395;204;63010;-69
2024/02/12 00:24:50;;;;;;;0.60;0.60;;;;;;;5.33;100.00;95237.13;29395;202;63009;-69
2024/02/12 00:25:21;;;;;;;0.52;0.52;;;;;;;5.32;100.00;95239.03;29395;232;63005;-67
2024/02/12 00:25:53;;;;;;;0.60;0.60;;;;;;;5.32;100.00;95233.66;29394;222;64013;-66
2024/02/12 00:26:25;;;;;;;0.60;0.60;;;;;;;5.36;100.00;95242.72;29395;246;63005;-69
2024/02/12 00:27:03;;;;;;;0.50;0.50;;;;;;;5.35;100.00;95238.44;29395;221;63009;-57
2024/02/12 00:27:35;;;;;;;0.52;0.52;;;;;;;5.38;100.00;95232.47;29395;224;63004;-57
2024/02/12 00:28:07;;;;;;;0.50;0.50;;;;;;;5.39;100.00;95235.94;29395;221;63021;-57
2024/02/12 00:28:38;;;;;;;0.60;0.60;;;;;;;5.42;100.00;95239.94;29395;218;63004;-68
2024/02/12 00:29:13;;;;;;;0.60;0.60;;;;;;;5.41;100.00;95232.97;29395;202;63009;-66
2024/02/12 00:29:45;;;;;;;0.60;0.60;;;;;;;5.43;100.00;95233.44;29395;235;63015;-57
2024/02/12 00:30:19;;;;;;;0.60;0.60;;;;;;;5.43;100.00;95236.16;29395;220;63008;-57
2024/02/12 00:30:51;;;;;;;0.60;0.60;;;;;;;5.41;100.00;95239.13;29395;282;63005;-57
2024/02/12 00:31:26;;;;;;;0.60;0.60;;;;;;;5.39;100.00;95231.34;29394;199;64014;-57
2024/02/12 00:31:58;;;;;;;0.60;0.60;;;;;;;5.38;100.00;95235.16;29395;254;63005;-58
2024/02/12 00:32:30;;;;;;;0.50;0.50;;;;;;;5.38;100.00;95229.78;29395;211;63009;-58
2024/02/12 00:33:04;;;;;;;0.60;0.60;;;;;;;5.38;100.00;95229.78;29395;222;63005;-57
2024/02/12 00:33:36;;;;;;;0.60;0.60;;;;;;;5.45;100.00;95225.88;29395;226;63009;-69
2024/02/12 00:34:08;;;;;;;0.60;0.60;;;;;;;5.42;100.00;95221.91;29395;204;63005;-59
2024/02/12 00:34:39;;;;;;;0.60;0.60;;;;;;;5.47;99.75;95232.56;29395;208;63009;-57
2024/02/12 00:35:11;;;;;;;0.50;0.50;;;;;;;5.45;100.00;95228.56;29394;248;64009;-57
2024/02/12 00:35:42;;;;;;;0.60;0.60;;;;;;;5.43;100.00;95225.38;29395;315;63009;-67
2024/02/12 00:36:18;;;;;;;0.60;0.60;;;;;;;5.41;100.00;95227.56;29395;226;63005;-57
2024/02/12 00:36:49;;;;;;;0.60;0.60;;;;;;;5.37;100.00;95233.56;29395;245;63009;-57
2024/02/12 00:37:20;;;;;;;0.60;0.60;;;;;;;5.36;100.00;95229.28;29395;207;63004;-55
2024/02/12 00:37:55;;;;;;;0.50;0.50;;;;;;;5.37;100.00;95232.75;29395;271;63008;-58
2024/02/12 00:38:27;;;;;;;0.60;0.60;;;;;;;5.35;100.00;95235.75;29395;208;63015;-57
2024/02/12 00:38:59;;;;;;;0.60;0.60;;;;;;;5.35;100.00;95229.56;29395;198;63020;-57
2024/02/12 00:39:30;;;;;;;0.50;0.50;;;;;;;5.37;100.00;95238.94;29395;212;63005;-56
2024/02/12 00:40:09;;;;;;;0.60;0.60;;;;;;;5.39;100.00;95235.94;29395;214;63009;-57
2024/02/12 00:40:41;;;;;;;0.60;0.60;;;;;;;5.39;100.00;95234.06;29394;266;64009;-57
2024/02/12 00:41:15;;;;;;;0.60;0.60;;;;;;;5.40;100.00;95232.16;29395;197;63015;-56
2024/02/12 00:41:52;;;;;;;0.60;0.60;;;;;;;5.38;100.00;95235.16;29395;227;63004;-56
2024/02/12 00:42:24;;;;;;;0.50;0.50;;;;;;;5.34;100.00;95228.78;29395;220;63009;-57
2024/02/12 00:42:57;;;;;;;0.50;0.50;;;;;;;5.33;100.00;95237.94;29395;202;63004;-57
2024/02/12 00:43:28;;;;;;;0.55;0.55;;;;;;;5.34;100.00;95231.47;29395;202;63009;-57
2024/02/12 00:44:03;;;;;;;0.60;0.60;;;;;;;5.38;100.00;95235.16;29395;243;63004;-56
2024/02/12 00:44:40;;;;;;;0.50;0.50;;;;;;;5.38;100.00;95237.84;29395;262;63023;-57
2024/02/12 00:45:12;;;;;;;0.50;0.50;;;;;;;5.43;100.00;95236.16;29395;218;63004;-56
2024/02/12 00:45:44;;;;;;;0.60;0.60;;;;;;;5.48;100.00;95238.72;29394;220;64014;-57
2024/02/12 00:46:17;;;;;;;0.60;0.60;;;;;;;5.48;100.00;95236.03;29395;210;63013;-58
2024/02/12 00:46:48;;;;;;;0.60;0.60;;;;;;;5.45;100.00;95233.94;29395;222;63026;-57
2024/02/12 00:47:20;;;;;;;0.60;0.60;;;;;;;5.42;100.00;95239.94;29395;197;63005;-56
2024/02/12 00:47:53;;;;;;;0.60;0.60;;;;;;;5.39;100.00;95236.75;29395;275;63009;-57
2024/02/12 00:48:25;;;;;;;0.50;0.50;;;;;;;5.36;100.00;95234.66;29395;268;63005;-57
2024/02/12 00:48:57;;;;;;;0.60;0.60;;;;;;;5.37;100.00;95238.94;29395;221;63024;-57
2024/02/12 00:49:28;;;;;;;0.50;0.50;;;;;;;5.35;100.00;95235.75;29395;278;63004;-68
2024/02/12 00:50:00;;;;;;;0.60;0.60;;;;;;;5.33;100.00;95232.56;29395;266;63017;-56
2024/02/12 00:50:36;;;;;;;0.50;0.50;;;;;;;5.34;100.00;95244.91;29395;239;63004;-57
2024/02/12 00:51:12;;;;;;;0.60;0.60;;;;;;;5.33;100.00;95239.81;29394;202;64013;-64
2024/02/12 00:51:44;;;;;;;0.60;0.60;;;;;;;5.31;100.00;95233.94;29395;209;63004;-57
2024/02/12 00:52:15;;;;;;;0.60;0.60;;;;;;;5.29;100.00;95242.31;29395;276;63009;-57
2024/02/12 00:52:46;;;;;;;0.60;0.60;;;;;;;5.31;100.00;95234.75;29395;241;63005;-57
2024/02/12 00:53:18;;;;;;;0.60;0.60;;;;;;;5.32;100.00;95236.34;29395;217;63009;-57
2024/02/12 00:53:49;;;;;;;0.60;0.60;;;;;;;5.31;100.00;95240.13;29395;207;63005;-57
2024/02/12 00:54:21;;;;;;;0.50;0.50;;;;;;;5.30;100.00;95238.53;29395;357;63009;-58
2024/02/12 00:54:52;;;;;;;0.60;0.60;;;;;;;5.29;100.00;95245.00;29395;204;63005;-57
2024/02/12 00:55:23;;;;;;;0.60;0.60;;;;;;;5.29;100.00;95236.94;29395;267;63009;-55
2024/02/12 00:55:57;;;;;;;0.60;0.60;;;;;;;5.28;100.00;95240.72;29395;220;63005;-67
2024/02/12 00:56:28;;;;;;;0.60;0.60;;;;;;;5.27;100.00;95241.81;29394;205;64013;-64
2024/02/12 00:57:00;;;;;;;0.60;0.60;;;;;;;5.28;100.00;95238.03;29395;205;63004;-68
2024/02/12 00:57:34;;;;;;;0.60;0.60;;;;;;;5.27;100.00;95238.31;29395;347;63026;-57
2024/02/12 00:58:06;;;;;;;0.50;0.50;;;;;;;5.26;100.00;95248.28;29395;212;63004;-57
2024/02/12 00:58:38;;;;;;;0.60;0.60;;;;;;;5.26;100.00;95245.59;29395;239;63009;-57
2024/02/12 00:59:11;;;;;;;0.60;0.60;;;;;;;5.26;100.00;95242.91;29395;202;63011;-55
2024/02/12 00:59:43;;;;;;;0.60;0.60;;;;;;;5.25;100.00;95244.00;29395;203;63025;-58
2024/02/12 01:00:15;;;;;;;0.60;0.60;;;;;;;5.25;100.00;95246.69;29395;197;63010;-57
2024/02/12 01:00:46;;;;;;;0.60;0.60;;;;;;;5.26;100.00;95247.50;29395;240;63009;-57
2024/02/12 01:01:18;;;;;;;0.60;0.60;;;;;;;5.26;100.00;95250.97;29395;348;63005;-57
2024/02/12 01:01:50;;;;;;;0.60;0.60;;;;;;;5.27;100.00;95243.72;29394;231;64013;-54
2024/02/12 01:02:22;;;;;;;0.50;0.50;;;;;;;5.27;100.00;95249.88;29395;222;63005;-66
2024/02/12 01:02:54;;;;;;;0.60;0.60;;;;;;;5.28;100.00;95239.91;29395;226;63009;-67
2024/02/12 01:03:26;;;;;;;0.60;0.60;;;;;;;5.28;100.00;95246.09;29395;225;63005;-57
2024/02/12 01:03:59;;;;;;;0.55;0.55;;;;;;;5.28;100.00;95243.41;29395;274;63024;-57
2024/02/12 01:04:31;;;;;;;0.50;0.50;;;;;;;5.27;100.00;95243.72;29395;210;63004;-57
2024/02/12 01:05:03;;;;;;;0.60;0.60;;;;;;;5.25;100.00;95246.69;29395;218;63009;-58
2024/02/12 01:05:34;;;;;;;0.60;0.60;;;;;;;5.25;100.00;95240.50;29395;219;63004;-56
2024/02/12 01:06:05;;;;;;;0.55;0.55;;;;;;;5.24;100.00;95245.09;29395;255;63009;-55
2024/02/12 01:06:38;;;;;;;0.57;0.57;;;;;;;5.25;100.00;95244.00;29395;255;63004;-56
2024/02/12 01:07:10;;;;;;;0.60;0.60;;;;;;;5.26;100.00;95239.41;29394;237;64013;-55
2024/02/12 01:07:44;;;;;;;0.60;0.60;;;;;;;5.25;100.00;95238.63;29395;232;63005;-56
2024/02/12 01:08:16;;;;;;;0.60;0.60;;;;;;;5.25;100.00;95246.69;29395;205;63017;-55
2024/02/12 01:08:48;;;;;;;0.60;0.60;;;;;;;5.28;100.00;95248.78;29395;255;63013;-56
2024/02/12 01:09:21;;;;;;;0.60;0.60;;;;;;;5.29;100.00;95246.91;29395;205;63009;-55
2024/02/12 01:09:52;;;;;;;0.60;0.60;;;;;;;5.28;100.00;95245.31;29395;260;63005;-55
2024/02/12 01:10:26;;;;;;;0.60;0.60;;;;;;;5.26;100.00;95247.50;29395;227;63009;-55
2024/02/12 01:10:57;;;;;;;0.60;0.60;;;;;;;5.25;100.00;95241.31;29395;213;63005;-57
2024/02/12 01:11:29;;;;;;;0.50;0.50;;;;;;;5.29;100.00;95247.69;29395;203;63009;-57
2024/02/12 01:12:00;;;;;;;0.50;0.50;;;;;;;5.29;100.00;95246.91;29395;218;63004;-56
2024/02/12 01:12:31;;;;;;;0.60;0.60;;;;;;;5.27;100.00;95244.50;29394;222;64013;-55
2024/02/12 01:13:03;;;;;;;0.60;0.60;;;;;;;5.26;100.00;95250.19;29395;275;63004;-56
2024/02/12 01:13:35;;;;;;;0.60;0.60;;;;;;;5.23;100.00;95243.50;29395;212;63009;-56
2024/02/12 01:14:07;;;;;;;0.60;0.60;;;;;;;5.22;100.00;95247.28;29395;204;63004;-57
2024/02/12 01:14:38;;;;;;;0.60;0.60;;;;;;;5.22;100.00;95247.28;29395;215;63008;-57
2024/02/12 01:15:09;;;;;;;0.60;0.60;;;;;;;5.22;100.00;95241.91;29395;260;63005;-55
2024/02/12 01:15:41;;;;;;;0.60;0.60;;;;;;;5.20;100.00;95246.78;29395;245;63025;-55
2024/02/12 01:16:12;;;;;;;0.60;0.60;;;;;;;5.20;100.00;95246.78;29395;207;63005;-55
2024/02/12 01:16:44;;;;;;;0.60;0.60;;;;;;;5.19;100.00;95241.75;29395;213;63009;-55
2024/02/12 01:17:16;;;;;;;0.60;0.60;;;;;;;5.21;100.00;95245.69;29394;234;64009;-56
2024/02/12 01:17:47;;;;;;;0.60;0.60;;;;;;;5.22;100.00;95251.87;29395;260;63009;-55
2024/02/12 01:18:19;;;;;;;0.60;0.60;;;;;;;5.22;100.00;95255.34;29395;246;63005;-55
2024/02/12 01:18:53;;;;;;;0.60;0.60;;;;;;;5.23;100.00;95248.09;29395;220;63009;-64
2024/02/12 01:19:25;;;;;;;0.60;0.60;;;;;;;5.26;100.00;95255.56;29395;242;63018;-57
2024/02/12 01:19:56;;;;;;;0.60;0.60;;;;;;;5.25;100.00;95246.69;29395;299;63009;-58
2024/02/12 01:20:27;;;;;;;0.60;0.60;;;;;;;5.26;100.00;95245.59;29395;232;63004;-57
2024/02/12 01:20:59;;;;;;;0.60;0.60;;;;;;;5.26;100.00;95245.59;29395;237;63009;-55
2024/02/12 01:21:33;;;;;;;0.60;0.60;;;;;;;5.28;100.00;95250.69;29395;220;63004;-56
2024/02/12 01:22:05;;;;;;;0.60;0.60;;;;;;;5.27;100.00;95255.25;29395;202;63008;-56
2024/02/12 01:22:38;;;;;;;0.60;0.60;;;;;;;5.27;100.00;95251.78;29394;270;64009;-56
2024/02/12 01:23:10;;;;;;;0.50;0.50;;;;;;;5.24;100.00;95250.47;29395;209;63009;-56
2024/02/12 01:23:43;;;;;;;0.60;0.60;;;;;;;5.24;100.00;95255.84;29395;205;63005;-57
2024/02/12 01:24:15;;;;;;;0.60;0.60;;;;;;;5.25;100.00;95253.97;29395;219;63009;-56
2024/02/12 01:24:47;;;;;;;0.60;0.60;;;;;;;5.25;100.00;95251.28;29395;242;63005;-55
2024/02/12 01:25:18;;;;;;;0.60;0.60;;;;;;;5.25;100.00;95251.28;29395;213;63009;-56
2024/02/12 01:25:51;;;;;;;0.60;0.60;;;;;;;5.24;100.00;95255.06;29395;221;63005;-56
2024/02/12 01:26:24;;;;;;;0.60;0.60;;;;;;;5.27;100.00;95255.25;29395;202;63009;-56
2024/02/12 01:26:55;;;;;;;0.60;0.60;;;;;;;5.28;100.00;95256.84;29395;227;63004;-57
2024/02/12 01:27:27;;;;;;;0.60;0.60;;;;;;;5.29;100.00;95253.06;29395;204;63009;-56
2024/02/12 01:28:00;;;;;;;0.60;0.60;;;;;;;5.26;100.00;95253.66;29394;232;64009;-57
2024/02/12 01:28:32;;;;;;;0.60;0.60;;;;;;;5.25;100.00;95257.44;29395;255;63004;-56
2024/02/12 01:29:04;;;;;;;0.60;0.60;;;;;;;5.26;100.00;95252.87;29395;205;63004;-56
2024/02/12 01:29:38;;;;;;;0.60;0.60;;;;;;;5.24;100.00;95253.16;29395;215;63015;-55
2024/02/12 01:30:13;;;;;;;0.60;0.60;;;;;;;5.22;100.00;95255.34;29395;202;63010;-55
2024/02/12 01:30:44;;;;;;;0.60;0.60;;;;;;;5.23;100.00;95253.47;29395;203;63009;-55
2024/02/12 01:31:18;;;;;;;0.60;0.60;;;;;;;5.23;100.00;95254.25;29395;339;63005;-57
2024/02/12 01:31:50;;;;;;;0.60;0.60;;;;;;;5.23;100.00;95254.25;29395;220;63009;-56
2024/02/12 01:32:22;;;;;;;0.50;0.50;;;;;;;5.27;100.00;95252.56;29395;247;63005;-55
2024/02/12 01:32:53;;;;;;;0.60;0.60;;;;;;;5.30;100.00;95248.50;29395;257;63009;-56
2024/02/12 01:33:25;;;;;;;0.60;0.60;;;;;;;5.30;100.00;95248.50;29394;208;64009;-56
2024/02/12 01:33:56;;;;;;;0.60;0.60;;;;;;;5.29;100.00;95247.69;29395;197;63009;-55
2024/02/12 01:34:28;;;;;;;0.60;0.60;;;;;;;5.31;100.00;95250.09;29395;295;63004;-55
2024/02/12 01:35:00;;;;;;;0.50;0.50;;;;;;;5.31;100.00;95256.25;29395;226;63009;-56
2024/02/12 01:35:31;;;;;;;0.60;0.60;;;;;;;5.29;100.00;95253.06;29395;224;63012;-55
2024/02/12 01:36:05;;;;;;;0.60;0.60;;;;;;;5.26;100.00;95247.50;29395;197;63009;-56
2024/02/12 01:36:37;;;;;;;0.60;0.60;;;;;;;5.22;100.00;95246.50;29395;241;63004;-56
2024/02/12 01:37:08;;;;;;;0.60;0.60;;;;;;;5.20;100.00;95252.16;29395;215;63008;-55
2024/02/12 01:37:39;;;;;;;0.60;0.60;;;;;;;5.20;100.00;95249.47;29394;266;64004;-56
2024/02/12 01:38:11;;;;;;;0.60;0.60;;;;;;;5.24;100.00;95249.69;29395;247;63009;-55
2024/02/12 01:38:43;;;;;;;0.60;0.60;;;;;;;5.24;100.00;95250.47;29395;226;63005;-56
2024/02/12 01:39:15;;;;;;;0.60;0.60;;;;;;;5.27;100.00;95249.88;29395;216;63009;-56
2024/02/12 01:39:49;;;;;;;0.60;0.60;;;;;;;5.26;100.00;95253.66;29395;202;63005;-56
2024/02/12 01:40:20;;;;;;;0.60;0.60;;;;;;;5.25;100.00;95262.03;29395;242;63009;-56
2024/02/12 01:40:51;;;;;;;0.60;0.60;;;;;;;5.23;100.00;95253.47;29395;219;63005;-56
2024/02/12 01:41:24;;;;;;;0.60;0.60;;;;;;;5.20;100.00;95251.41;29395;219;63023;-57
2024/02/12 01:41:55;;;;;;;0.60;0.60;;;;;;;5.18;100.00;95251.69;29395;222;63004;-56
2024/02/12 01:42:27;;;;;;;0.60;0.60;;;;;;;5.18;100.00;95257.06;29395;306;63009;-66
2024/02/12 01:42:58;;;;;;;0.60;0.60;;;;;;;5.18;100.00;95257.06;29394;247;64009;-56
2024/02/12 01:43:30;;;;;;;0.60;0.60;;;;;;;5.20;100.00;95260.22;29395;214;63009;-56
2024/02/12 01:44:04;;;;;;;0.60;0.60;;;;;;;5.24;100.00;95253.16;29395;259;63004;-56
2024/02/12 01:44:35;;;;;;;0.60;0.60;;;;;;;5.23;100.00;95254.25;29395;253;63008;-56
2024/02/12 01:45:13;;;;;;;0.50;0.50;;;;;;;5.21;100.00;95251.06;29395;240;63005;-56
2024/02/12 01:45:45;;;;;;;0.60;0.60;;;;;;;5.19;100.00;95258.66;29395;241;63009;-55
2024/02/12 01:46:19;;;;;;;0.60;0.60;;;;;;;5.17;100.00;95255.47;29395;210;63016;-57
2024/02/12 01:46:51;;;;;;;0.60;0.60;;;;;;;5.17;100.00;95258.16;29395;203;63027;-56
2024/02/12 01:47:22;;;;;;;0.60;0.60;;;;;;;5.16;100.00;95256.56;29395;238;63005;-56
2024/02/12 01:48:02;;;;;;;0.60;0.60;;;;;;;5.17;100.00;95258.16;29395;349;63009;-56
2024/02/12 01:48:36;;;;;;;0.60;0.60;;;;;;;5.17;100.00;95257.38;29394;232;64009;-56
2024/02/12 01:49:10;;;;;;;0.60;0.60;;;;;;;5.17;100.00;95266.22;29395;224;63009;-57
2024/02/12 01:49:43;;;;;;;0.60;0.60;;;;;;;5.17;100.00;95260.84;29395;220;63004;-56
2024/02/12 01:50:15;;;;;;;0.60;0.60;;;;;;;5.17;100.00;95263.53;29395;207;63009;-57
2024/02/12 01:50:49;;;;;;;0.60;0.60;;;;;;;5.19;100.00;95264.03;29395;222;63014;-57
2024/02/12 01:51:21;;;;;;;0.60;0.60;;;;;;;5.20;100.00;95262.91;29395;248;63023;-57
2024/02/12 01:51:54;;;;;;;0.60;0.60;;;;;;;5.20;100.00;95254.84;29395;309;63004;-57
2024/02/12 01:52:29;;;;;;;0.60;0.60;;;;;;;5.18;100.00;95257.06;29395;274;63024;-55
2024/02/12 01:53:05;;;;;;;0.60;0.60;;;;;;;5.18;100.00;95257.06;29395;197;63005;-57
2024/02/12 01:53:37;;;;;;;0.60;0.60;;;;;;;5.18;100.00;95267.03;29394;352;64013;-56
2024/02/12 01:54:15;;;;;;;0.60;0.60;;;;;;;5.17;100.00;95260.84;29395;221;63005;-56
2024/02/12 01:54:52;;;;;;;0.60;0.60;;;;;;;5.15;100.00;95252.28;29394;210;64013;-58
2024/02/12 01:55:23;;;;;;;0.60;0.60;;;;;;;5.17;100.00;95255.47;29395;233;63006;-56
2024/02/12 01:55:56;;;;;;;0.60;0.60;;;;;;;5.19;100.00;95255.19;29395;217;63009;-57
2024/02/12 01:56:31;;;;;;;0.60;0.60;;;;;;;5.19;100.00;95258.66;29395;198;63004;-57
2024/02/12 01:57:03;;;;;;;0.60;0.60;;;;;;;5.16;100.00;95253.88;29395;199;63009;-57
2024/02/12 01:57:35;;;;;;;0.60;0.60;;;;;;;5.17;100.00;95260.06;29395;286;63017;-57
2024/02/12 01:58:06;;;;;;;0.60;0.60;;;;;;;5.17;100.00;95255.47;29395;196;63009;-56
2024/02/12 01:58:42;;;;;;;0.50;0.50;;;;;;;5.17;100.00;95257.38;29395;204;63004;-57
2024/02/12 01:59:16;;;;;;;0.50;0.50;;;;;;;5.18;100.00;95246.31;29395;237;63008;-56
2024/02/12 01:59:48;;;;;;;0.60;0.60;;;;;;;5.18;100.00;95250.91;29394;239;64009;-57
2024/02/12 02:00:23;;;;;;;0.60;0.60;;;;;;;5.18;100.00;95256.28;29395;220;63009;-57
2024/02/12 02:00:55;;;;;;;0.60;0.60;;;;;;;5.17;100.00;95266.22;29395;250;63005;-55
2024/02/12 02:01:29;;;;;;;0.60;0.60;;;;;;;5.16;100.00;95259.25;29395;255;63009;-66
2024/02/12 02:02:01;;;;;;;0.60;0.60;;;;;;;5.13;100.00;95259.06;29395;257;63016;-57
2024/02/12 02:02:33;;;;;;;0.50;0.50;;;;;;;5.14;100.00;95257.97;29395;224;63009;-56
2024/02/12 02:03:05;;;;;;;0.60;0.60;;;;;;;5.14;100.00;95261.44;29395;225;63005;-56
2024/02/12 02:03:39;;;;;;;0.60;0.60;;;;;;;5.16;100.00;95263.84;29395;212;63009;-56
2024/02/12 02:04:10;;;;;;;0.60;0.60;;;;;;;5.16;100.00;95261.94;29395;211;63018;-57
2024/02/12 02:04:42;;;;;;;0.60;0.60;;;;;;;5.15;100.00;95263.03;29395;192;63009;-56
2024/02/12 02:05:15;;;;;;;0.60;0.60;;;;;;;5.15;100.00;95265.72;29394;218;64009;-56
2024/02/12 02:05:47;;;;;;;0.52;0.52;;;;;;;5.18;100.00;95267.81;29395;211;63009;-57
2024/02/12 02:06:18;;;;;;;0.60;0.60;;;;;;;5.19;100.00;95264.03;29395;218;63007;-56
2024/02/12 02:06:55;;;;;;;0.60;0.60;;;;;;;5.19;100.00;95266.72;29395;246;63020;-56
2024/02/12 02:07:27;;;;;;;0.60;0.60;;;;;;;5.21;100.00;95259.13;29395;233;63005;-57
2024/02/12 02:08:00;;;;;;;0.60;0.60;;;;;;;5.22;100.00;95263.41;29395;227;63009;-56
2024/02/12 02:08:39;;;;;;;0.77;0.77;;;;;;;5.27;100.00;95260.63;29395;204;63012;-55
2024/02/12 02:09:11;;;;;;;0.60;0.60;;;;;;;5.25;100.00;95262.81;29395;236;63009;-56
2024/02/12 02:09:42;;;;;;;0.60;0.60;;;;;;;5.24;100.00;95265.81;29395;223;63005;-55
2024/02/12 02:10:14;;;;;;;0.60;0.60;;;;;;;5.21;100.00;95261.81;29394;197;64013;-56
2024/02/12 02:10:48;;;;;;;0.60;0.60;;;;;;;5.22;100.00;95263.41;29395;205;63005;-55
2024/02/12 02:11:20;;;;;;;0.60;0.60;;;;;;;5.24;100.00;95263.91;29395;244;63009;-56
2024/02/12 02:11:52;;;;;;;0.60;0.60;;;;;;;5.25;100.00;95262.03;29395;203;63004;-57
2024/02/12 02:12:24;;;;;;;0.60;0.60;;;;;;;5.24;100.00;95269.31;29395;197;63009;-57
2024/02/12 02:12:59;;;;;;;0.60;0.60;;;;;;;5.24;100.00;95269.31;29395;215;63004;-56
2024/02/12 02:13:32;;;;;;;0.60;0.60;;;;;;;5.24;100.00;95265.81;29395;224;63009;-56
2024/02/12 02:14:03;;;;;;;0.60;0.60;;;;;;;5.26;100.00;95269.81;29395;223;63011;-55
2024/02/12 02:14:35;;;;;;;0.60;0.60;;;;;;;5.26;100.00;95267.13;29395;214;63009;-56
2024/02/12 02:15:08;;;;;;;0.60;0.60;;;;;;;5.27;100.00;95270.59;29395;246;63005;-57
2024/02/12 02:15:42;;;;;;;0.60;0.60;;;;;;;5.25;100.00;95273.59;29394;203;64014;-56
2024/02/12 02:16:15;;;;;;;0.60;0.60;;;;;;;5.24;100.00;95269.31;29395;231;63005;-55
2024/02/12 02:16:47;;;;;;;0.60;0.60;;;;;;;5.22;100.00;95263.41;29395;220;63009;-56
2024/02/12 02:17:20;;;;;;;0.60;0.60;;;;;;;5.21;100.00;95272.59;29395;212;63015;-56
2024/02/12 02:17:51;;;;;;;0.60;0.60;;;;;;;5.19;100.00;95266.72;29395;241;63024;-56
2024/02/12 02:18:23;;;;;;;0.60;0.60;;;;;;;5.20;100.00;95271.00;29395;229;63005;-56
2024/02/12 02:18:58;;;;;;;0.60;0.60;;;;;;;5.19;100.00;95271.31;29395;204;63018;-56
2024/02/12 02:19:29;;;;;;;0.60;0.60;;;;;;;5.17;100.00;95273.50;29394;240;64009;-55
2024/02/12 02:20:01;;;;;;;0.60;0.60;;;;;;;5.16;100.00;95272.72;29395;241;63009;-56
2024/02/12 02:20:35;;;;;;;0.60;0.60;;;;;;;5.19;100.00;95272.12;29395;216;63004;-57
2024/02/12 02:21:12;;;;;;;0.60;0.60;;;;;;;5.22;100.00;95276.88;29395;214;63009;-56
2024/02/12 02:21:44;;;;;;;0.60;0.60;;;;;;;5.23;100.00;95275.78;29395;217;63004;-56
2024/02/12 02:22:16;;;;;;;0.60;0.60;;;;;;;5.24;100.00;95272.00;29395;214;63009;-56
2024/02/12 02:22:49;;;;;;;0.60;0.60;;;;;;;5.25;100.00;95273.59;29395;267;63005;-57
2024/02/12 02:23:20;;;;;;;0.60;0.60;;;;;;;5.25;100.00;95270.09;29395;213;63022;-56
2024/02/12 02:24:00;;;;;;;0.60;0.60;;;;;;;5.22;100.00;95274.19;29395;199;63005;-56
2024/02/12 02:24:32;;;;;;;0.60;0.60;;;;;;;5.23;100.00;95269.59;29416;298;64013;-55
2024/02/12 02:25:05;;;;;;;0.60;0.60;;;;;;;5.21;100.00;95277.97;29395;198;63005;-55
2024/02/12 02:25:37;;;;;;;0.60;0.60;;;;;;;5.22;100.00;95274.19;29395;214;63024;-56
2024/02/12 02:26:09;;;;;;;0.60;0.60;;;;;;;5.24;100.00;95276.56;29395;238;63005;-55
2024/02/12 02:26:41;;;;;;;0.60;0.60;;;;;;;5.24;100.00;95273.88;29395;216;63009;-56
2024/02/12 02:27:12;;;;;;;0.60;0.60;;;;;;;5.25;100.00;95284.34;29395;221;63004;-55
2024/02/12 02:27:44;;;;;;;0.60;0.60;;;;;;;5.25;100.00;95276.28;29395;238;63009;-56
2024/02/12 02:28:17;;;;;;;0.60;0.60;;;;;;;5.25;100.00;95283.53;29395;384;63004;-55
2024/02/12 02:28:48;;;;;;;0.60;0.60;;;;;;;5.27;100.00;95281.34;29395;245;63015;-56
2024/02/12 02:29:19;;;;;;;0.60;0.60;;;;;;;5.28;100.00;95282.94;29395;208;63004;-55
2024/02/12 02:29:51;;;;;;;0.60;0.60;;;;;;;5.30;100.00;95278.88;29394;273;64014;-57
2024/02/12 02:30:22;;;;;;;0.55;0.55;;;;;;;5.34;100.00;95277.19;29395;230;63017;-57
2024/02/12 02:30:54;;;;;;;0.60;0.60;;;;;;;5.35;100.00;95277.97;29395;212;63009;-57
2024/02/12 02:31:26;;;;;;;0.60;0.60;;;;;;;5.34;100.00;95276.37;29395;266;63005;-57
2024/02/12 02:31:57;;;;;;;0.60;0.60;;;;;;;5.33;100.00;95283.66;29395;307;63009;-57
2024/02/12 02:32:28;;;;;;;0.60;0.60;;;;;;;5.31;100.00;95277.78;29395;218;63005;-56
2024/02/12 02:33:03;;;;;;;0.60;0.60;;;;;;;5.30;100.00;95278.06;29395;220;63009;-57
2024/02/12 02:33:35;;;;;;;0.60;0.60;;;;;;;5.35;100.00;95278.78;29395;279;63005;-57
2024/02/12 02:34:10;;;;;;;0.60;0.60;;;;;;;5.34;100.00;95285.25;29395;239;63009;-57
2024/02/12 02:34:43;;;;;;;0.50;0.50;;;;;;;5.34;100.00;95273.69;29395;207;63004;-57
2024/02/12 02:35:16;;;;;;;0.60;0.60;;;;;;;5.35;100.00;95281.47;29394;249;64013;-57
2024/02/12 02:35:47;;;;;;;0.60;0.60;;;;;;;5.35;100.00;95289.53;29395;207;63004;-57